createdAt,value
2019-02-21T00:01:03.711Z,8.50
2019-02-21T00:03:35.245Z,8.50
2019-02-21T00:06:06.197Z,8.50
2019-02-21T00:08:37.035Z,8.50
2019-02-21T00:11:07.820Z,8.50
2019-02-21T00:13:37.553Z,8.50
2019-02-21T00:16:07.080Z,8.50
2019-02-21T00:18:37.783Z,8.50
2019-02-21T00:21:06.898Z,8.50
2019-02-21T00:23:36.059Z,8.50
2019-02-21T00:26:05.474Z,8.50
2019-02-21T00:28:35.428Z,8.50
2019-02-21T00:31:04.590Z,8.50
2019-02-21T00:33:33.679Z,8.50
2019-02-21T00:36:03.702Z,8.40
2019-02-21T00:38:33.520Z,8.40
2019-02-21T00:41:02.550Z,8.40
2019-02-21T00:43:32.733Z,8.40
2019-02-21T00:46:02.937Z,8.40
2019-02-21T00:48:34.395Z,8.40
2019-02-21T00:51:03.553Z,8.30
2019-02-21T00:53:32.625Z,8.30
2019-02-21T00:56:01.809Z,8.30
2019-02-21T00:58:30.784Z,8.40
2019-02-21T01:01:00.279Z,8.40
2019-02-21T01:03:29.476Z,8.40
2019-02-21T01:05:58.716Z,8.30
2019-02-21T01:08:27.784Z,8.30
2019-02-21T01:10:56.766Z,8.30
2019-02-21T01:13:26.008Z,8.20
2019-02-21T01:15:55.419Z,8.30
2019-02-21T01:18:24.774Z,8.30
2019-02-21T01:20:53.922Z,8.30
2019-02-21T01:23:23.101Z,8.30
2019-02-21T01:25:52.324Z,8.30
2019-02-21T01:28:21.614Z,8.20
2019-02-21T01:30:57.079Z,8.10
2019-02-21T01:33:22.008Z,8.20
2019-02-21T01:35:51.011Z,8.20
2019-02-21T01:38:20.846Z,8.10
2019-02-21T01:40:49.902Z,8.10
2019-02-21T01:43:19.156Z,8.10
2019-02-21T01:45:48.274Z,8.10
2019-02-21T01:48:17.371Z,8.10
2019-02-21T01:50:46.362Z,8.10
2019-02-21T01:53:15.514Z,8.10
2019-02-21T01:55:44.950Z,8.10
2019-02-21T01:58:14.164Z,8.10
2019-02-21T02:00:43.274Z,8.10
2019-02-21T02:03:12.578Z,8.10
2019-02-21T02:05:41.696Z,8.10
2019-02-21T02:08:10.813Z,8.00
2019-02-21T02:10:39.945Z,8.00
2019-02-21T02:13:10.436Z,8.00
2019-02-21T02:15:39.946Z,8.00
2019-02-21T02:18:08.966Z,8.00
2019-02-21T02:20:38.166Z,8.00
2019-02-21T02:23:07.346Z,8.00
2019-02-21T02:25:36.403Z,8.00
2019-02-21T02:28:05.838Z,8.00
2019-02-21T02:30:35.342Z,8.00
2019-02-21T02:33:04.378Z,8.00
2019-02-21T02:35:33.752Z,8.00
2019-02-21T02:38:03.156Z,8.00
2019-02-21T02:40:32.372Z,8.00
2019-02-21T02:43:01.571Z,8.00
2019-02-21T02:45:30.827Z,8.00
2019-02-21T02:47:59.884Z,8.00
2019-02-21T02:50:28.951Z,8.00
2019-02-21T02:52:57.994Z,8.00
2019-02-21T02:55:27.106Z,8.00
2019-02-21T02:57:56.184Z,8.00
2019-02-21T03:00:25.329Z,8.00
2019-02-21T03:02:55.175Z,7.90
2019-02-21T03:05:24.189Z,8.00
2019-02-21T03:07:53.265Z,8.00
2019-02-21T03:10:22.581Z,8.00
2019-02-21T03:12:51.751Z,8.00
2019-02-21T03:15:20.892Z,8.00
2019-02-21T03:17:50.082Z,8.00
2019-02-21T03:20:19.151Z,8.00
2019-02-21T03:22:48.473Z,7.90
2019-02-21T03:25:17.652Z,7.90
2019-02-21T03:27:46.974Z,7.90
2019-02-21T03:30:16.095Z,7.90
2019-02-21T03:32:45.315Z,7.80
2019-02-21T03:35:14.475Z,7.80
2019-02-21T03:37:45.509Z,7.80
2019-02-21T03:40:14.710Z,7.70
2019-02-21T03:42:43.805Z,7.70
2019-02-21T03:45:13.322Z,7.80
2019-02-21T03:47:42.365Z,7.70
2019-02-21T03:50:11.967Z,7.80
2019-02-21T03:52:41.405Z,7.80
2019-02-21T03:55:10.805Z,7.80
2019-02-21T03:57:40.830Z,7.90
2019-02-21T04:00:10.285Z,7.90
2019-02-21T04:02:40.251Z,8.00
2019-02-21T04:05:09.592Z,8.00
2019-02-21T04:07:38.839Z,7.90
2019-02-21T04:10:08.335Z,7.90
2019-02-21T04:12:37.758Z,7.90
2019-02-21T04:15:07.808Z,7.90
2019-02-21T04:17:37.262Z,7.90
2019-02-21T04:20:06.557Z,7.90
2019-02-21T04:22:35.890Z,7.80
2019-02-21T04:25:05.313Z,7.90
2019-02-21T04:27:34.558Z,7.90
2019-02-21T04:30:03.776Z,7.90
2019-02-21T04:32:32.940Z,8.00
2019-02-21T04:35:02.154Z,7.90
2019-02-21T04:37:31.264Z,7.90
2019-02-21T04:40:00.353Z,7.90
2019-02-21T04:42:29.649Z,8.00
2019-02-21T04:44:59.517Z,7.90
2019-02-21T04:47:28.717Z,7.90
2019-02-21T04:49:57.992Z,7.80
2019-02-21T04:52:27.323Z,7.80
2019-02-21T04:54:56.462Z,7.80
2019-02-21T04:57:25.609Z,7.70
2019-02-21T04:59:54.703Z,7.70
2019-02-21T05:02:29.294Z,7.80
2019-02-21T05:04:54.710Z,7.80
2019-02-21T05:07:23.871Z,7.80
2019-02-21T05:09:57.938Z,7.80
2019-02-21T05:12:23.755Z,7.80
2019-02-21T05:14:53.087Z,7.80
2019-02-21T05:17:22.353Z,7.90
2019-02-21T05:19:51.506Z,7.90
2019-02-21T05:22:20.794Z,7.90
2019-02-21T05:24:49.929Z,7.90
2019-02-21T05:27:32.015Z,7.80
2019-02-21T05:30:01.397Z,7.80
2019-02-21T05:32:56.104Z,7.80
2019-02-21T05:35:48.075Z,7.80
2019-02-21T05:38:34.976Z,7.90
2019-02-21T05:41:34.858Z,7.90
2019-02-21T05:44:24.869Z,7.90
2019-02-21T05:47:18.993Z,7.90
2019-02-21T05:50:08.892Z,7.90
2019-02-21T05:52:53.623Z,7.90
2019-02-21T05:55:28.325Z,7.90
2019-02-21T05:58:28.471Z,7.80
2019-02-21T06:01:07.434Z,7.80
2019-02-21T06:03:44.471Z,7.80
2019-02-21T06:06:36.107Z,7.80
2019-02-21T06:09:24.680Z,7.80
2019-02-21T06:12:09.876Z,7.80
2019-02-21T06:15:06.841Z,7.80
2019-02-21T06:18:13.181Z,7.80
2019-02-21T06:21:01.312Z,7.80
2019-02-21T06:23:49.130Z,7.80
2019-02-21T06:26:22.792Z,7.80
2019-02-21T06:29:02.907Z,7.80
2019-02-21T06:31:32.015Z,7.80
2019-02-21T06:34:01.304Z,7.80
2019-02-21T06:36:30.764Z,7.80
2019-02-21T06:38:59.934Z,7.80
2019-02-21T06:41:29.910Z,7.90
2019-02-21T06:43:59.731Z,7.90
2019-02-21T06:46:28.865Z,7.90
2019-02-21T06:48:59.082Z,7.90
2019-02-21T06:51:28.567Z,8.00
2019-02-21T06:53:57.794Z,8.00
2019-02-21T06:56:26.975Z,8.00
2019-02-21T06:58:56.204Z,8.10
2019-02-21T07:01:29.241Z,8.10
2019-02-21T07:03:56.521Z,8.20
2019-02-21T07:06:32.004Z,8.30
2019-02-21T07:08:59.725Z,8.30
2019-02-21T07:11:28.069Z,8.40
2019-02-21T07:13:57.447Z,8.30
2019-02-21T07:16:26.738Z,8.30
2019-02-21T07:18:55.727Z,8.40
2019-02-21T07:21:24.817Z,8.40
2019-02-21T07:23:53.944Z,8.40
2019-02-21T07:26:23.286Z,8.40
2019-02-21T07:28:52.919Z,8.50
2019-02-21T07:31:28.801Z,8.50
2019-02-21T07:33:57.411Z,8.50
2019-02-21T07:36:26.614Z,8.50
2019-02-21T07:39:08.430Z,8.50
2019-02-21T07:41:26.635Z,8.50
2019-02-21T07:43:56.097Z,8.60
2019-02-21T07:46:25.333Z,8.50
2019-02-21T07:48:54.894Z,8.50
2019-02-21T07:51:24.080Z,8.50
2019-02-21T07:53:53.690Z,8.60
2019-02-21T07:56:23.146Z,8.60
2019-02-21T07:58:52.291Z,8.70
2019-02-21T08:01:21.670Z,8.70
2019-02-21T08:03:50.694Z,8.80
2019-02-21T08:06:20.344Z,8.80
2019-02-21T08:08:49.617Z,8.90
2019-02-21T08:11:18.772Z,8.90
2019-02-21T08:13:48.091Z,8.90
2019-02-21T08:16:17.386Z,9.00
2019-02-21T08:18:46.873Z,9.00
2019-02-21T08:21:15.983Z,9.10
2019-02-21T08:23:50.527Z,9.10
2019-02-21T08:26:23.875Z,9.20
2019-02-21T08:28:53.654Z,9.20
2019-02-21T08:31:22.725Z,9.20
2019-02-21T08:33:58.989Z,9.30
2019-02-21T08:36:28.354Z,9.40
2019-02-21T08:38:57.653Z,9.40
2019-02-21T08:41:26.865Z,9.40
2019-02-21T08:43:57.385Z,9.50
2019-02-21T08:46:30.512Z,9.50
2019-02-21T08:48:59.894Z,9.50
2019-02-21T08:51:29.078Z,9.60
2019-02-21T08:53:59.510Z,9.60
2019-02-21T08:56:30.032Z,9.70
2019-02-21T08:59:00.122Z,9.70
2019-02-21T09:01:29.283Z,9.80
2019-02-21T09:04:09.588Z,9.80
2019-02-21T09:06:30.023Z,9.80
2019-02-21T09:08:59.250Z,9.80
2019-02-21T09:11:28.610Z,9.90
2019-02-21T09:13:57.708Z,9.90
2019-02-21T09:16:26.989Z,9.90
2019-02-21T09:18:56.191Z,10.00
2019-02-21T09:21:25.482Z,10.10
2019-02-21T09:23:56.698Z,10.10
2019-02-21T09:26:26.570Z,10.20
2019-02-21T09:28:55.610Z,10.20
2019-02-21T09:31:24.963Z,10.30
2019-02-21T09:33:54.896Z,10.40
2019-02-21T09:36:24.404Z,10.40
2019-02-21T09:38:53.471Z,10.40
2019-02-21T09:41:22.719Z,10.50
2019-02-21T09:43:52.179Z,10.50
2019-02-21T09:46:21.420Z,10.70
2019-02-21T09:48:51.474Z,10.70
2019-02-21T09:51:21.618Z,10.80
2019-02-21T09:53:50.657Z,10.80
2019-02-21T09:56:30.050Z,10.90
2019-02-21T09:58:52.938Z,11.00
2019-02-21T10:01:22.442Z,11.10
2019-02-21T10:03:57.307Z,11.20
2019-02-21T10:06:26.536Z,11.20
2019-02-21T10:08:55.725Z,11.30
2019-02-21T10:11:28.255Z,11.30
2019-02-21T10:13:57.339Z,11.30
2019-02-21T10:16:29.708Z,11.40
2019-02-21T10:18:58.974Z,11.40
2019-02-21T10:21:28.293Z,11.40
2019-02-21T10:23:57.803Z,11.40
2019-02-21T10:26:27.553Z,11.40
2019-02-21T10:28:56.766Z,11.40
2019-02-21T10:31:26.050Z,11.60
2019-02-21T10:34:09.347Z,11.50
2019-02-21T10:36:38.554Z,11.50
2019-02-21T10:39:08.151Z,11.60
2019-02-21T10:41:37.314Z,11.60
2019-02-21T10:44:06.562Z,11.60
2019-02-21T10:46:35.747Z,11.60
2019-02-21T10:49:05.027Z,11.70
2019-02-21T10:51:34.539Z,11.80
2019-02-21T10:54:03.713Z,11.80
2019-02-21T10:56:33.020Z,11.90
2019-02-21T10:59:02.173Z,11.90
2019-02-21T11:01:31.502Z,11.90
2019-02-21T11:04:00.566Z,12.00
2019-02-21T11:06:29.693Z,12.00
2019-02-21T11:09:00.955Z,12.00
2019-02-21T11:11:30.227Z,12.10
2019-02-21T11:14:00.783Z,12.20
2019-02-21T11:16:30.018Z,12.20
2019-02-21T11:18:59.348Z,12.30
2019-02-21T11:21:30.249Z,12.40
2019-02-21T11:24:00.223Z,12.40
2019-02-21T11:26:29.405Z,12.40
2019-02-21T11:28:58.661Z,12.40
2019-02-21T11:31:28.132Z,12.40
2019-02-21T11:33:57.404Z,12.40
2019-02-21T11:36:28.568Z,12.50
2019-02-21T11:39:00.528Z,12.40
2019-02-21T11:41:29.692Z,12.40
2019-02-21T11:43:59.102Z,12.30
2019-02-21T11:46:28.316Z,12.30
2019-02-21T11:48:57.674Z,12.30
2019-02-21T11:51:27.416Z,12.40
2019-02-21T11:53:56.790Z,12.40
2019-02-21T11:56:25.866Z,12.40
2019-02-21T11:58:55.240Z,12.50
2019-02-21T12:01:24.499Z,12.50
2019-02-21T12:03:53.805Z,12.50
2019-02-21T12:06:22.978Z,12.50
2019-02-21T12:08:52.703Z,12.50
2019-02-21T12:11:21.988Z,12.50
2019-02-21T12:13:51.406Z,12.50
2019-02-21T12:16:20.704Z,12.50
2019-02-21T12:18:49.903Z,12.50
2019-02-21T12:21:19.127Z,12.50
2019-02-21T12:23:48.266Z,12.50
2019-02-21T12:26:17.798Z,12.60
2019-02-21T12:28:47.275Z,12.60
2019-02-21T12:31:16.490Z,12.60
2019-02-21T12:33:45.826Z,12.60
2019-02-21T12:36:15.244Z,12.70
2019-02-21T12:38:44.544Z,12.70
2019-02-21T12:41:13.780Z,12.70
2019-02-21T12:43:44.031Z,12.70
2019-02-21T12:46:13.198Z,12.70
2019-02-21T12:48:42.554Z,12.70
2019-02-21T12:51:11.830Z,12.60
2019-02-21T12:53:41.049Z,12.60
2019-02-21T12:56:10.472Z,12.50
2019-02-21T12:58:41.833Z,12.50
2019-02-21T13:01:11.962Z,12.50
2019-02-21T13:03:41.230Z,12.50
2019-02-21T13:06:10.406Z,12.40
2019-02-21T13:08:40.343Z,12.30
2019-02-21T13:11:09.686Z,12.40
2019-02-21T13:13:40.334Z,12.40
2019-02-21T13:16:09.665Z,12.30
2019-02-21T13:18:38.799Z,12.20
2019-02-21T13:21:07.979Z,12.30
2019-02-21T13:23:37.106Z,12.20
2019-02-21T13:26:06.240Z,12.10
2019-02-21T13:28:35.914Z,12.00
2019-02-21T13:31:06.287Z,12.00
2019-02-21T13:33:36.544Z,12.00
2019-02-21T13:36:06.586Z,11.90
2019-02-21T13:38:39.330Z,11.90
2019-02-21T13:41:08.562Z,11.80
2019-02-21T13:43:37.758Z,11.80
2019-02-21T13:46:08.030Z,11.90
2019-02-21T13:48:37.335Z,11.80
2019-02-21T13:51:06.676Z,11.80
2019-02-21T13:53:35.786Z,11.70
2019-02-21T13:56:04.926Z,11.50
2019-02-21T13:58:34.007Z,11.50
2019-02-21T14:01:03.193Z,11.50
2019-02-21T14:03:32.586Z,11.40
2019-02-21T14:06:03.884Z,11.20
2019-02-21T14:08:32.898Z,11.10
2019-02-21T14:11:02.024Z,11.10
2019-02-21T14:13:31.205Z,11.00
2019-02-21T14:16:00.644Z,11.10
2019-02-21T14:18:29.796Z,11.10
2019-02-21T14:21:00.005Z,11.00
2019-02-21T14:23:29.096Z,11.00
2019-02-21T14:25:58.259Z,10.90
2019-02-21T14:28:28.439Z,11.00
2019-02-21T14:30:57.686Z,10.90
2019-02-21T14:33:26.827Z,10.90
2019-02-21T14:35:55.964Z,10.90
2019-02-21T14:38:28.159Z,10.80
2019-02-21T14:40:55.918Z,10.80
2019-02-21T14:43:25.008Z,10.80
2019-02-21T14:45:54.310Z,10.80
2019-02-21T14:48:26.645Z,10.90
2019-02-21T14:50:54.701Z,10.80
2019-02-21T14:53:24.026Z,10.80
2019-02-21T14:55:53.477Z,10.80
2019-02-21T14:58:22.775Z,10.80
2019-02-21T15:00:51.871Z,10.80
2019-02-21T15:03:22.427Z,10.70
2019-02-21T15:05:51.710Z,10.80
2019-02-21T15:08:22.193Z,10.70
2019-02-21T15:10:52.838Z,10.70
2019-02-21T15:13:25.503Z,10.70
2019-02-21T15:15:54.065Z,10.60
2019-02-21T15:18:23.297Z,10.70
2019-02-21T15:20:52.539Z,10.70
2019-02-21T15:23:21.854Z,10.70
2019-02-21T15:25:51.043Z,10.70
2019-02-21T15:28:20.245Z,10.80
2019-02-21T15:30:49.475Z,10.80
2019-02-21T15:33:18.620Z,10.80
2019-02-21T15:35:47.673Z,10.90
2019-02-21T15:38:19.946Z,10.90
2019-02-21T15:40:47.737Z,10.90
2019-02-21T15:43:16.893Z,10.90
2019-02-21T15:45:46.126Z,10.90
2019-02-21T15:48:15.747Z,10.90
2019-02-21T15:50:44.935Z,10.90
2019-02-21T15:53:14.303Z,10.90
2019-02-21T15:55:43.531Z,10.90
2019-02-21T15:58:12.663Z,10.90
2019-02-21T16:00:41.758Z,10.80
2019-02-21T16:03:10.846Z,10.80
2019-02-21T16:05:40.083Z,10.80
2019-02-21T16:08:09.723Z,10.80
2019-02-21T16:10:39.869Z,10.80
2019-02-21T16:13:09.494Z,10.80
2019-02-21T16:15:39.613Z,10.90
2019-02-21T16:18:09.479Z,10.90
2019-02-21T16:20:38.924Z,10.90
2019-02-21T16:23:08.023Z,10.90
2019-02-21T16:25:37.371Z,10.80
2019-02-21T16:28:06.561Z,10.80
2019-02-21T16:30:35.869Z,10.80
2019-02-21T16:33:05.490Z,10.80
2019-02-21T16:35:34.726Z,10.80
2019-02-21T16:38:03.806Z,10.80
2019-02-21T16:40:32.904Z,10.80
2019-02-21T16:43:02.135Z,10.80
2019-02-21T16:45:42.936Z,10.80
2019-02-21T16:48:02.244Z,10.80
2019-02-21T16:50:31.334Z,10.80
2019-02-21T16:53:00.478Z,10.80
2019-02-21T16:55:29.708Z,10.90
2019-02-21T16:57:59.187Z,10.90
2019-02-21T17:00:42.220Z,10.90
2019-02-21T17:02:59.565Z,10.90
2019-02-21T17:05:28.955Z,10.80
2019-02-21T17:07:59.021Z,10.80
2019-02-21T17:10:28.033Z,10.80
2019-02-21T17:12:57.527Z,10.80
2019-02-21T17:15:27.330Z,10.80
2019-02-21T17:18:03.926Z,10.80
2019-02-21T17:20:29.711Z,10.80
2019-02-21T17:22:58.791Z,10.80
2019-02-21T17:25:28.137Z,10.70
2019-02-21T17:27:59.194Z,10.70
2019-02-21T17:30:28.482Z,10.80
2019-02-21T17:32:57.691Z,10.80
2019-02-21T17:35:28.319Z,10.80
2019-02-21T17:37:57.571Z,10.70
2019-02-21T17:40:27.010Z,10.80
2019-02-21T17:42:56.135Z,10.80
2019-02-21T17:45:25.440Z,10.80
2019-02-21T17:47:54.756Z,10.80
2019-02-21T17:50:24.324Z,10.80
2019-02-21T17:52:53.777Z,10.80
2019-02-21T17:55:23.421Z,10.80
2019-02-21T17:57:52.614Z,10.80
2019-02-21T18:00:26.926Z,10.90
2019-02-21T18:02:56.379Z,10.90
2019-02-21T18:05:25.451Z,10.90
2019-02-21T18:07:54.762Z,10.90
2019-02-21T18:10:23.845Z,10.80
2019-02-21T18:12:54.066Z,10.90
2019-02-21T18:15:23.203Z,10.90
2019-02-21T18:17:52.595Z,11.00
2019-02-21T18:20:21.805Z,11.00
2019-02-21T18:22:50.974Z,10.90
2019-02-21T18:25:32.330Z,11.00
2019-02-21T18:28:01.569Z,11.00
2019-02-21T18:30:30.794Z,11.00
2019-02-21T18:33:00.470Z,11.10
2019-02-21T18:35:29.749Z,11.10
2019-02-21T18:37:58.904Z,11.10
2019-02-21T18:40:28.000Z,11.00
2019-02-21T18:42:57.503Z,11.00
2019-02-21T18:45:26.804Z,11.10
2019-02-21T18:47:56.073Z,11.00
2019-02-21T18:50:25.388Z,11.00
2019-02-21T18:52:54.474Z,11.00
2019-02-21T18:55:23.960Z,11.00
2019-02-21T18:57:53.265Z,11.00
2019-02-21T19:00:22.507Z,11.00
2019-02-21T19:02:51.630Z,11.00
2019-02-21T19:05:20.743Z,10.90
2019-02-21T19:08:00.415Z,11.00
2019-02-21T19:10:20.935Z,10.90
2019-02-21T19:12:50.017Z,10.90
2019-02-21T19:15:23.331Z,10.90
2019-02-21T19:17:52.759Z,10.90
2019-02-21T19:20:22.056Z,10.90
2019-02-21T19:22:51.197Z,10.80
2019-02-21T19:25:20.513Z,10.80
2019-02-21T19:27:50.386Z,10.80
2019-02-21T19:30:25.605Z,10.80
2019-02-21T19:32:54.190Z,10.80
2019-02-21T19:35:24.280Z,10.80
2019-02-21T19:37:53.523Z,10.80
2019-02-21T19:40:22.935Z,10.80
2019-02-21T19:42:52.208Z,10.80
2019-02-21T19:45:21.742Z,10.90
2019-02-21T19:47:50.793Z,10.80
2019-02-21T19:50:19.948Z,10.80
2019-02-21T19:52:49.042Z,10.80
2019-02-21T19:55:18.122Z,10.80
2019-02-21T19:57:47.346Z,10.70
2019-02-21T20:00:18.843Z,10.80
2019-02-21T20:02:48.654Z,10.70
2019-02-21T20:05:17.802Z,10.70
2019-02-21T20:07:46.974Z,10.80
2019-02-21T20:10:16.385Z,10.80
2019-02-21T20:12:47.019Z,10.70
2019-02-21T20:15:16.278Z,10.80
2019-02-21T20:17:45.685Z,10.80
2019-02-21T20:20:17.090Z,10.70
2019-02-21T20:22:46.535Z,10.70
2019-02-21T20:25:15.974Z,10.70
2019-02-21T20:27:45.195Z,10.70
2019-02-21T20:30:15.003Z,10.80
2019-02-21T20:32:44.083Z,10.80
2019-02-21T20:35:13.308Z,10.80
2019-02-21T20:37:42.983Z,10.80
2019-02-21T20:40:12.367Z,10.80
2019-02-21T20:42:41.506Z,10.80
2019-02-21T20:45:10.802Z,10.80
2019-02-21T20:47:39.929Z,10.80
2019-02-21T20:50:09.682Z,10.80
2019-02-21T20:52:38.829Z,10.70
2019-02-21T20:55:10.514Z,10.80
2019-02-21T20:57:40.416Z,10.70
2019-02-21T21:00:10.964Z,10.70
2019-02-21T21:02:40.106Z,10.70
2019-02-21T21:05:09.318Z,10.60
2019-02-21T21:07:38.403Z,10.60
2019-02-21T21:10:09.228Z,10.60
2019-02-21T21:12:38.453Z,10.50
2019-02-21T21:15:09.590Z,10.50
2019-02-21T21:17:39.050Z,10.50
2019-02-21T21:20:16.390Z,10.50
2019-02-21T21:22:40.184Z,10.50
2019-02-21T21:25:11.843Z,10.50
2019-02-21T21:27:41.701Z,10.40
2019-02-21T21:30:12.246Z,10.40
2019-02-21T21:32:41.446Z,10.40
2019-02-21T21:35:10.613Z,10.40
2019-02-21T21:37:39.877Z,10.30
2019-02-21T21:40:10.660Z,10.30
2019-02-21T21:42:40.013Z,10.40
2019-02-21T21:45:11.830Z,10.40
2019-02-21T21:47:41.321Z,10.30
2019-02-21T21:50:11.074Z,10.30
2019-02-21T21:52:40.155Z,10.30
2019-02-21T21:55:10.615Z,10.30
2019-02-21T21:57:39.719Z,10.30
2019-02-21T22:00:12.192Z,10.30
2019-02-21T22:02:41.358Z,10.30
2019-02-21T22:05:10.650Z,10.30
2019-02-21T22:07:40.572Z,10.30
2019-02-21T22:10:10.645Z,10.30
2019-02-21T22:12:39.915Z,10.20
2019-02-21T22:15:09.833Z,10.30
2019-02-21T22:17:38.853Z,10.20
2019-02-21T22:20:08.216Z,10.30
2019-02-21T22:22:37.595Z,10.30
2019-02-21T22:25:07.780Z,10.30
2019-02-21T22:27:36.802Z,10.30
2019-02-21T22:30:07.115Z,10.30
2019-02-21T22:32:36.396Z,10.20
2019-02-21T22:35:05.821Z,10.20
2019-02-21T22:37:34.908Z,10.30
2019-02-21T22:40:04.321Z,10.20
2019-02-21T22:42:34.063Z,10.30
2019-02-21T22:45:05.453Z,10.20
2019-02-21T22:47:34.130Z,10.30
2019-02-21T22:50:03.143Z,10.20
2019-02-21T22:52:32.406Z,10.20
2019-02-21T22:55:09.394Z,10.20
2019-02-21T22:57:32.393Z,10.20
2019-02-21T23:00:02.516Z,10.20
2019-02-21T23:02:33.835Z,10.20
2019-02-21T23:05:53.698Z,10.20
2019-02-21T23:08:52.722Z,10.00
2019-02-21T23:11:22.122Z,10.00
2019-02-21T23:13:51.605Z,10.00
2019-02-21T23:16:20.722Z,10.00
2019-02-21T23:18:50.585Z,9.90
2019-02-21T23:21:19.979Z,9.90
2019-02-21T23:23:49.106Z,9.90
2019-02-21T23:26:18.184Z,9.90
2019-02-21T23:28:47.394Z,9.80
2019-02-21T23:31:16.740Z,9.80
2019-02-21T23:33:49.568Z,9.80
2019-02-21T23:36:19.636Z,9.80
2019-02-21T23:38:48.889Z,9.80
2019-02-21T23:41:18.453Z,9.80
2019-02-21T23:43:47.724Z,9.80
2019-02-21T23:46:17.118Z,9.80
2019-02-21T23:48:46.499Z,9.80
2019-02-21T23:51:15.850Z,9.70
2019-02-21T23:53:45.925Z,9.70
2019-02-21T23:56:15.187Z,9.80
2019-02-21T23:58:44.475Z,9.80
